createdAt,value
2023-06-22T00:01:48.509Z,21.19
2023-06-22T00:04:15.847Z,21.13
2023-06-22T00:06:42.870Z,21.10
2023-06-22T00:09:11.414Z,21.12
2023-06-22T00:11:39.213Z,21.13
2023-06-22T00:14:06.369Z,21.05
2023-06-22T00:16:34.024Z,21.02
2023-06-22T00:19:01.880Z,21.01
2023-06-22T00:21:28.859Z,21.04
2023-06-22T00:23:56.649Z,21.05
2023-06-22T00:26:23.898Z,21.04
2023-06-22T00:28:51.109Z,21.06
2023-06-22T00:31:18.249Z,21.01
2023-06-22T00:33:45.432Z,20.99
2023-06-22T00:36:14.542Z,20.98
2023-06-22T00:38:41.666Z,21.05
2023-06-22T00:41:08.663Z,21.24
2023-06-22T00:43:35.833Z,21.13
2023-06-22T00:46:02.817Z,21.03
2023-06-22T00:48:30.239Z,20.96
2023-06-22T00:50:57.214Z,21.11
2023-06-22T00:53:24.645Z,21.04
2023-06-22T00:55:52.844Z,21.14
2023-06-22T00:58:23.043Z,21.11
2023-06-22T01:00:50.243Z,21.15
2023-06-22T01:03:18.375Z,21.07
2023-06-22T01:05:47.990Z,21.00
2023-06-22T01:08:31.330Z,20.95
2023-06-22T01:11:12.327Z,20.95
2023-06-22T01:13:46.355Z,20.93
2023-06-22T01:16:18.719Z,20.96
2023-06-22T01:18:46.845Z,20.92
2023-06-22T01:21:18.473Z,20.94
2023-06-22T01:24:20.922Z,20.93
2023-06-22T01:27:18.236Z,20.93
2023-06-22T01:29:46.856Z,20.92
2023-06-22T01:32:14.702Z,20.86
2023-06-22T01:34:43.462Z,20.87
2023-06-22T01:37:10.632Z,20.86
2023-06-22T01:39:38.071Z,20.84
2023-06-22T01:42:06.288Z,20.80
2023-06-22T01:44:35.156Z,20.80
2023-06-22T01:47:02.773Z,20.76
2023-06-22T01:49:30.587Z,20.74
2023-06-22T01:51:57.571Z,20.74
2023-06-22T01:54:24.780Z,20.73
2023-06-22T01:56:51.728Z,20.70
2023-06-22T01:59:35.724Z,20.69
2023-06-22T02:02:07.511Z,20.70
2023-06-22T02:04:45.226Z,20.74
2023-06-22T02:07:18.010Z,20.75
2023-06-22T02:09:48.565Z,20.77
2023-06-22T02:12:19.496Z,20.76
2023-06-22T02:14:48.249Z,20.75
2023-06-22T02:17:15.370Z,20.72
2023-06-22T02:19:43.137Z,20.73
2023-06-22T02:22:10.023Z,20.73
2023-06-22T02:24:37.222Z,20.64
2023-06-22T02:27:04.411Z,20.63
2023-06-22T02:29:31.675Z,20.66
2023-06-22T02:31:58.786Z,20.68
2023-06-22T02:34:26.043Z,20.69
2023-06-22T02:36:53.063Z,20.69
2023-06-22T02:39:25.032Z,20.67
2023-06-22T02:41:56.012Z,20.65
2023-06-22T02:44:23.235Z,20.63
2023-06-22T02:46:50.515Z,20.58
2023-06-22T02:49:17.713Z,20.59
2023-06-22T02:51:48.052Z,20.60
2023-06-22T02:54:15.397Z,20.60
2023-06-22T02:56:44.916Z,20.58
2023-06-22T02:59:12.234Z,20.57
2023-06-22T03:01:41.539Z,20.57
2023-06-22T03:04:10.032Z,20.53
2023-06-22T03:06:37.313Z,20.51
2023-06-22T03:09:06.230Z,20.49
2023-06-22T03:11:34.284Z,20.48
2023-06-22T03:14:02.296Z,20.51
2023-06-22T03:16:30.216Z,20.56
2023-06-22T03:18:57.720Z,20.53
2023-06-22T03:21:24.854Z,20.53
2023-06-22T03:23:52.135Z,20.52
2023-06-22T03:26:19.609Z,20.55
2023-06-22T03:28:47.631Z,20.49
2023-06-22T03:31:14.521Z,20.53
2023-06-22T03:33:41.738Z,20.55
2023-06-22T03:36:09.664Z,20.59
2023-06-22T03:38:36.793Z,20.56
2023-06-22T03:41:03.639Z,20.57
2023-06-22T03:43:30.837Z,20.58
2023-06-22T03:45:57.746Z,20.62
2023-06-22T03:48:24.977Z,20.66
2023-06-22T03:50:51.818Z,20.70
2023-06-22T03:53:19.518Z,20.72
2023-06-22T03:55:53.818Z,20.73
2023-06-22T03:58:21.958Z,20.76
2023-06-22T04:00:50.507Z,20.77
2023-06-22T04:03:20.141Z,20.77
2023-06-22T04:05:47.436Z,20.79
2023-06-22T04:08:15.192Z,20.82
2023-06-22T04:10:42.330Z,20.84
2023-06-22T04:13:09.775Z,20.85
2023-06-22T04:15:36.697Z,20.88
2023-06-22T04:18:04.121Z,20.93
2023-06-22T04:20:33.397Z,20.95
2023-06-22T04:23:00.878Z,20.99
2023-06-22T04:25:27.900Z,20.98
2023-06-22T04:27:55.087Z,21.03
2023-06-22T04:30:21.979Z,21.12
2023-06-22T04:32:58.894Z,21.14
2023-06-22T04:35:26.343Z,21.21
2023-06-22T04:37:56.156Z,21.26
2023-06-22T04:40:24.302Z,21.30
2023-06-22T04:42:54.702Z,21.33
2023-06-22T04:45:22.360Z,21.37
2023-06-22T04:47:50.139Z,21.42
2023-06-22T04:50:18.439Z,21.47
2023-06-22T04:52:46.705Z,21.50
2023-06-22T04:55:15.588Z,21.53
2023-06-22T04:57:45.788Z,21.57
2023-06-22T05:00:14.126Z,21.64
2023-06-22T05:02:42.295Z,21.78
2023-06-22T05:05:09.771Z,21.85
2023-06-22T05:07:37.731Z,21.87
2023-06-22T05:10:06.284Z,21.95
2023-06-22T05:12:33.530Z,22.03
2023-06-22T05:15:00.499Z,22.11
2023-06-22T05:17:27.777Z,22.19
2023-06-22T05:19:56.049Z,22.24
2023-06-22T05:22:23.236Z,22.33
2023-06-22T05:24:50.124Z,22.43
2023-06-22T05:27:17.399Z,22.48
2023-06-22T05:29:44.494Z,22.57
2023-06-22T05:32:11.884Z,22.66
2023-06-22T05:34:39.186Z,22.70
2023-06-22T05:37:07.296Z,22.82
2023-06-22T05:39:34.209Z,22.91
2023-06-22T05:42:01.389Z,22.95
2023-06-22T05:44:28.286Z,22.97
2023-06-22T05:46:55.404Z,23.07
2023-06-22T05:49:23.592Z,23.10
2023-06-22T05:51:50.850Z,23.23
2023-06-22T05:54:19.232Z,23.33
2023-06-22T05:56:46.438Z,23.44
2023-06-22T05:59:13.476Z,23.45
2023-06-22T06:01:41.370Z,23.49
2023-06-22T06:04:11.118Z,23.58
2023-06-22T06:06:38.616Z,23.62
2023-06-22T06:09:06.004Z,23.69
2023-06-22T06:11:33.221Z,23.83
2023-06-22T06:14:00.312Z,23.95
2023-06-22T06:16:27.452Z,24.08
2023-06-22T06:18:55.924Z,24.15
2023-06-22T06:21:23.751Z,24.23
2023-06-22T06:23:50.700Z,24.34
2023-06-22T06:26:18.172Z,24.42
2023-06-22T06:28:45.366Z,24.53
2023-06-22T06:31:13.368Z,24.67
2023-06-22T06:33:40.390Z,24.80
2023-06-22T06:36:09.619Z,24.92
2023-06-22T06:38:36.619Z,25.07
2023-06-22T06:41:03.718Z,25.14
2023-06-22T06:43:30.577Z,25.34
2023-06-22T06:45:57.760Z,25.36
2023-06-22T06:48:24.722Z,25.40
2023-06-22T06:50:51.913Z,25.49
2023-06-22T06:53:18.901Z,25.52
2023-06-22T06:55:46.742Z,25.58
2023-06-22T06:58:14.390Z,25.57
2023-06-22T07:00:41.715Z,25.60
2023-06-22T07:03:08.807Z,25.68
2023-06-22T07:05:36.448Z,25.73
2023-06-22T07:08:03.403Z,25.79
2023-06-22T07:10:31.336Z,25.85
2023-06-22T07:12:58.613Z,25.96
2023-06-22T07:15:26.309Z,26.07
2023-06-22T07:17:53.288Z,26.22
2023-06-22T07:20:20.920Z,26.30
2023-06-22T07:22:47.966Z,26.40
2023-06-22T07:25:18.707Z,26.48
2023-06-22T07:27:49.193Z,26.63
2023-06-22T07:30:16.428Z,26.73
2023-06-22T07:32:43.319Z,26.80
2023-06-22T07:35:10.552Z,26.74
2023-06-22T07:37:37.860Z,26.83
2023-06-22T07:40:07.437Z,26.92
2023-06-22T07:42:34.559Z,26.97
2023-06-22T07:45:02.881Z,27.04
2023-06-22T07:47:29.929Z,27.12
2023-06-22T07:49:59.372Z,27.25
2023-06-22T07:52:26.888Z,27.36
2023-06-22T07:54:54.278Z,27.34
2023-06-22T07:57:22.062Z,27.42
2023-06-22T07:59:49.524Z,27.43
2023-06-22T08:02:16.698Z,27.52
2023-06-22T08:04:44.177Z,27.55
2023-06-22T08:07:11.609Z,27.66
2023-06-22T08:09:38.771Z,27.73
2023-06-22T08:12:06.213Z,27.80
2023-06-22T08:14:33.376Z,27.86
2023-06-22T08:17:00.283Z,27.93
2023-06-22T08:19:27.523Z,28.02
2023-06-22T08:21:54.346Z,28.05
2023-06-22T08:24:21.530Z,28.09
2023-06-22T08:26:48.354Z,28.25
2023-06-22T08:29:18.121Z,28.19
2023-06-22T08:31:45.021Z,28.21
2023-06-22T08:34:12.187Z,28.07
2023-06-22T08:36:42.692Z,28.06
2023-06-22T08:39:11.249Z,28.20
2023-06-22T08:41:38.161Z,28.27
2023-06-22T08:44:05.769Z,28.36
2023-06-22T08:46:34.459Z,28.46
2023-06-22T08:49:02.050Z,28.59
2023-06-22T08:51:29.813Z,28.54
2023-06-22T08:53:56.929Z,28.67
2023-06-22T08:56:24.126Z,28.72
2023-06-22T08:58:51.241Z,28.90
2023-06-22T09:01:18.119Z,28.89
2023-06-22T09:03:45.977Z,28.92
2023-06-22T09:06:14.936Z,28.93
2023-06-22T09:08:42.158Z,29.01
2023-06-22T09:11:09.097Z,28.90
2023-06-22T09:13:36.209Z,28.99
2023-06-22T09:16:03.068Z,29.19
2023-06-22T09:18:30.261Z,29.30
2023-06-22T09:20:57.323Z,29.42
2023-06-22T09:23:24.534Z,29.54
2023-06-22T09:25:51.439Z,29.72
2023-06-22T09:28:18.741Z,29.80
2023-06-22T09:30:45.941Z,29.92
2023-06-22T09:33:13.126Z,30.08
2023-06-22T09:35:40.149Z,30.17
2023-06-22T09:38:07.274Z,30.21
2023-06-22T09:40:36.606Z,30.15
2023-06-22T09:43:03.717Z,30.30
2023-06-22T09:45:30.842Z,30.39
2023-06-22T09:47:58.027Z,30.56
2023-06-22T09:50:25.156Z,30.81
2023-06-22T09:52:55.912Z,30.99
2023-06-22T09:55:23.565Z,30.96
2023-06-22T09:57:50.769Z,31.15
2023-06-22T10:00:19.980Z,31.24
2023-06-22T10:02:47.906Z,31.43
2023-06-22T10:05:15.365Z,31.32
2023-06-22T10:07:44.938Z,31.31
2023-06-22T10:10:13.337Z,31.37
2023-06-22T10:12:47.626Z,31.53
2023-06-22T10:15:15.131Z,31.65
2023-06-22T10:17:42.850Z,31.77
2023-06-22T10:20:13.335Z,31.83
2023-06-22T10:22:45.169Z,31.49
2023-06-22T10:25:13.624Z,31.12
2023-06-22T10:27:41.040Z,31.22
2023-06-22T10:30:14.171Z,31.36
2023-06-22T10:32:43.881Z,31.41
2023-06-22T10:35:17.569Z,31.28
2023-06-22T10:37:45.812Z,31.40
2023-06-22T10:40:16.844Z,31.05
2023-06-22T10:42:44.784Z,30.86
2023-06-22T10:45:12.256Z,30.84
2023-06-22T10:47:39.652Z,30.98
2023-06-22T10:50:07.401Z,31.20
2023-06-22T10:52:34.764Z,31.33
2023-06-22T10:55:01.780Z,31.27
2023-06-22T10:57:29.139Z,31.26
2023-06-22T10:59:56.054Z,31.43
2023-06-22T11:02:23.289Z,31.59
2023-06-22T11:04:50.256Z,31.83
2023-06-22T11:07:17.772Z,31.98
2023-06-22T11:09:45.267Z,32.13
2023-06-22T11:12:12.756Z,32.36
2023-06-22T11:14:40.668Z,32.05
2023-06-22T11:17:07.825Z,32.23
2023-06-22T11:19:35.165Z,32.03
2023-06-22T11:22:02.374Z,32.20
2023-06-22T11:24:29.281Z,32.26
2023-06-22T11:26:58.152Z,32.54
2023-06-22T11:29:36.670Z,32.60
2023-06-22T11:32:05.832Z,32.82
2023-06-22T11:34:32.704Z,33.03
2023-06-22T11:36:59.853Z,33.21
2023-06-22T11:39:34.424Z,33.23
2023-06-22T11:42:11.349Z,33.00
2023-06-22T11:44:38.940Z,32.88
2023-06-22T11:47:06.749Z,33.00
2023-06-22T11:49:33.685Z,33.25
2023-06-22T11:52:00.915Z,33.27
2023-06-22T11:54:27.731Z,33.40
2023-06-22T11:56:54.897Z,33.63
2023-06-22T11:59:23.412Z,33.86
2023-06-22T12:01:52.488Z,34.10
2023-06-22T12:04:19.422Z,34.09
2023-06-22T12:06:46.590Z,33.98
2023-06-22T12:09:15.231Z,34.61
2023-06-22T12:11:42.512Z,35.64
2023-06-22T12:14:09.442Z,36.02
2023-06-22T12:16:36.719Z,35.62
2023-06-22T12:19:03.554Z,35.34
2023-06-22T12:21:30.746Z,35.12
2023-06-22T12:23:57.598Z,34.95
2023-06-22T12:26:24.885Z,34.72
2023-06-22T12:28:51.746Z,34.83
2023-06-22T12:31:19.043Z,35.04
2023-06-22T12:33:45.910Z,35.07
2023-06-22T12:36:13.051Z,34.49
2023-06-22T12:38:39.869Z,34.42
2023-06-22T12:41:06.633Z,33.96
2023-06-22T12:43:33.828Z,34.37
2023-06-22T12:46:00.853Z,34.59
2023-06-22T12:48:28.911Z,34.76
2023-06-22T12:50:56.223Z,34.87
2023-06-22T12:53:24.946Z,35.13
2023-06-22T12:55:51.938Z,35.07
2023-06-22T12:58:19.296Z,35.16
2023-06-22T13:00:46.188Z,35.35
2023-06-22T13:03:13.476Z,35.50
2023-06-22T13:05:40.472Z,35.26
2023-06-22T13:08:07.700Z,35.55
2023-06-22T13:10:34.789Z,35.66
2023-06-22T13:13:02.140Z,34.85
2023-06-22T13:15:32.493Z,35.00
2023-06-22T13:18:00.177Z,35.19
2023-06-22T13:20:27.127Z,35.27
2023-06-22T13:22:55.289Z,35.54
2023-06-22T13:25:24.873Z,35.50
2023-06-22T13:27:51.998Z,35.86
2023-06-22T13:30:19.079Z,35.90
2023-06-22T13:32:46.470Z,35.81
2023-06-22T13:35:13.624Z,35.65
2023-06-22T13:37:41.094Z,35.05
2023-06-22T13:40:09.125Z,34.95
2023-06-22T13:42:36.520Z,35.29
2023-06-22T13:45:04.046Z,35.55
2023-06-22T13:47:31.970Z,35.93
2023-06-22T13:49:59.628Z,36.08
2023-06-22T13:52:26.817Z,35.99
2023-06-22T13:54:53.832Z,35.93
2023-06-22T13:57:21.065Z,36.08
2023-06-22T13:59:48.014Z,36.37
2023-06-22T14:02:15.354Z,36.44
2023-06-22T14:04:42.412Z,36.15
2023-06-22T14:07:09.659Z,36.24
2023-06-22T14:09:36.673Z,36.37
2023-06-22T14:12:06.027Z,36.15
2023-06-22T14:14:34.178Z,36.21
2023-06-22T14:17:01.899Z,35.90
2023-06-22T14:19:28.769Z,35.75
2023-06-22T14:21:56.124Z,36.18
2023-06-22T14:24:25.332Z,36.23
2023-06-22T14:26:53.703Z,36.47
2023-06-22T14:29:20.570Z,36.41
2023-06-22T14:31:50.115Z,36.72
2023-06-22T14:34:17.133Z,36.86
2023-06-22T14:36:45.413Z,36.85
2023-06-22T14:39:12.432Z,37.00
2023-06-22T14:41:39.646Z,37.18
2023-06-22T14:44:06.600Z,37.31
2023-06-22T14:46:33.850Z,37.45
2023-06-22T14:49:00.713Z,37.54
2023-06-22T14:51:28.112Z,37.56
2023-06-22T14:53:55.161Z,37.47
2023-06-22T14:56:22.525Z,37.73
2023-06-22T14:58:49.886Z,37.51
2023-06-22T15:01:20.294Z,37.34
2023-06-22T15:03:47.377Z,37.36
2023-06-22T15:06:15.014Z,37.36
2023-06-22T15:08:42.200Z,37.31
2023-06-22T15:11:09.779Z,37.38
2023-06-22T15:13:40.606Z,36.89
2023-06-22T15:16:08.176Z,36.48
2023-06-22T15:18:36.657Z,36.67
2023-06-22T15:21:06.755Z,36.83
2023-06-22T15:23:34.363Z,36.90
2023-06-22T15:26:06.374Z,36.62
2023-06-22T15:28:34.433Z,36.10
2023-06-22T15:31:02.048Z,36.26
2023-06-22T15:33:28.997Z,36.36
2023-06-22T15:35:56.984Z,36.39
2023-06-22T15:38:24.161Z,36.10
2023-06-22T15:40:51.379Z,36.15
2023-06-22T15:43:18.478Z,36.03
2023-06-22T15:45:45.684Z,36.03
2023-06-22T15:48:12.586Z,36.14
2023-06-22T15:50:39.816Z,35.82
2023-06-22T15:53:06.680Z,35.89
2023-06-22T15:55:33.829Z,35.44
2023-06-22T15:58:00.690Z,35.35
2023-06-22T16:00:28.005Z,35.40
2023-06-22T16:02:55.254Z,35.33
2023-06-22T16:05:22.652Z,35.32
2023-06-22T16:07:49.610Z,35.20
2023-06-22T16:10:18.716Z,35.19
2023-06-22T16:12:45.813Z,35.03
2023-06-22T16:15:13.334Z,35.04
2023-06-22T16:17:40.406Z,34.58
2023-06-22T16:20:08.930Z,34.63
2023-06-22T16:22:35.851Z,34.56
2023-06-22T16:25:03.209Z,34.44
2023-06-22T16:27:31.741Z,34.44
2023-06-22T16:29:59.069Z,34.42
2023-06-22T16:32:26.249Z,34.48
2023-06-22T16:34:53.668Z,34.48
2023-06-22T16:37:21.322Z,34.48
2023-06-22T16:39:48.511Z,34.52
2023-06-22T16:42:15.480Z,34.59
2023-06-22T16:44:42.720Z,34.45
2023-06-22T16:47:09.905Z,34.51
2023-06-22T16:49:38.288Z,34.10
2023-06-22T16:52:05.755Z,34.29
2023-06-22T16:54:34.504Z,34.30
2023-06-22T16:57:02.894Z,34.18
2023-06-22T16:59:30.151Z,34.16
2023-06-22T17:01:59.117Z,33.85
2023-06-22T17:04:30.690Z,33.54
2023-06-22T17:07:07.688Z,33.54
2023-06-22T17:09:38.016Z,33.37
2023-06-22T17:14:33.728Z,33.05
2023-06-22T17:17:01.681Z,32.95
2023-06-22T17:19:28.883Z,32.74
2023-06-22T17:21:55.822Z,32.62
2023-06-22T17:24:25.105Z,32.50
2023-06-22T17:26:56.478Z,32.25
2023-06-22T17:29:35.739Z,32.09
2023-06-22T17:32:04.449Z,31.97
2023-06-22T17:34:32.746Z,31.92
2023-06-22T17:37:00.329Z,31.79
2023-06-22T17:39:29.836Z,31.68
2023-06-22T17:41:56.826Z,31.59
2023-06-22T17:44:28.211Z,31.48
2023-06-22T17:46:58.782Z,31.38
2023-06-22T17:49:30.669Z,31.25
2023-06-22T17:51:58.174Z,31.33
2023-06-22T17:54:40.052Z,31.31
2023-06-22T17:57:18.636Z,31.29
2023-06-22T17:59:51.058Z,31.23
2023-06-22T18:02:25.236Z,31.02
2023-06-22T18:04:58.248Z,30.89
2023-06-22T18:07:28.043Z,30.77
2023-06-22T18:09:56.556Z,30.64
2023-06-22T18:12:24.068Z,30.57
2023-06-22T18:14:51.842Z,30.50
2023-06-22T18:17:21.831Z,30.41
2023-06-22T18:19:50.442Z,30.32
2023-06-22T18:22:19.348Z,30.22
2023-06-22T18:24:49.697Z,30.11
2023-06-22T18:27:17.495Z,30.00
2023-06-22T18:29:45.767Z,29.89
2023-06-22T18:32:15.937Z,29.80
2023-06-22T18:34:44.415Z,29.68
2023-06-22T18:37:15.793Z,29.55
2023-06-22T18:39:46.751Z,29.45
2023-06-22T18:42:16.622Z,29.34
2023-06-22T18:44:44.019Z,29.19
2023-06-22T18:47:12.191Z,29.11
2023-06-22T18:49:45.537Z,29.02
2023-06-22T18:52:15.262Z,28.97
2023-06-22T18:54:44.018Z,28.87
2023-06-22T18:57:18.158Z,28.81
2023-06-22T18:59:52.530Z,28.75
2023-06-22T19:02:19.366Z,28.70
2023-06-22T19:04:46.705Z,28.62
2023-06-22T19:07:13.650Z,28.55
2023-06-22T19:09:40.848Z,28.47
2023-06-22T19:12:24.294Z,28.39
2023-06-22T19:15:04.828Z,28.31
2023-06-22T19:17:33.358Z,28.27
2023-06-22T19:20:12.169Z,28.28
2023-06-22T19:22:58.387Z,28.25
2023-06-22T19:25:36.264Z,28.23
2023-06-22T19:28:03.886Z,28.17
2023-06-22T19:30:32.658Z,28.08
2023-06-22T19:33:00.746Z,28.04
2023-06-22T19:35:30.195Z,28.01
2023-06-22T19:37:57.302Z,27.98
2023-06-22T19:40:24.520Z,27.96
2023-06-22T19:42:58.054Z,27.95
2023-06-22T19:45:25.370Z,27.94
2023-06-22T19:47:52.520Z,27.97
2023-06-22T19:50:24.713Z,27.88
2023-06-22T19:52:55.110Z,27.80
2023-06-22T19:55:22.744Z,27.80
2023-06-22T19:57:51.395Z,27.79
2023-06-22T20:00:23.294Z,27.75
2023-06-22T20:02:55.228Z,27.77
2023-06-22T20:05:24.179Z,27.83
2023-06-22T20:07:51.063Z,27.76
2023-06-22T20:10:22.291Z,27.71
2023-06-22T20:12:53.629Z,27.60
2023-06-22T20:15:22.697Z,27.63
2023-06-22T20:18:10.776Z,27.58
2023-06-22T20:20:43.726Z,27.62
2023-06-22T20:23:13.998Z,27.54
2023-06-22T20:25:43.967Z,27.47
2023-06-22T20:28:18.242Z,27.38
2023-06-22T20:31:08.520Z,27.29
2023-06-22T20:33:35.737Z,27.27
2023-06-22T20:36:06.260Z,27.22
2023-06-22T20:51:58.747Z,26.91
2023-06-22T20:54:25.902Z,26.89
2023-06-22T20:56:53.174Z,26.87
2023-06-22T20:59:20.425Z,26.91
2023-06-22T21:01:47.920Z,26.87
2023-06-22T21:04:15.147Z,26.83
2023-06-22T21:06:42.080Z,26.80
2023-06-22T21:09:09.375Z,26.78
2023-06-22T21:11:36.337Z,26.76
2023-06-22T21:14:14.078Z,26.69
2023-06-22T21:16:45.358Z,26.68
2023-06-22T21:19:12.588Z,26.69
2023-06-22T21:21:39.541Z,26.69
2023-06-22T21:24:06.910Z,26.71
2023-06-22T21:26:33.956Z,26.74
2023-06-22T21:29:01.149Z,26.65
2023-06-22T21:31:28.244Z,26.56
2023-06-22T21:33:55.479Z,26.54
2023-06-22T21:36:22.367Z,26.47
2023-06-22T21:38:49.477Z,26.50
2023-06-22T21:41:16.390Z,26.46
2023-06-22T21:43:43.547Z,26.47
2023-06-22T21:46:10.387Z,26.47
2023-06-22T21:48:37.642Z,26.43
2023-06-22T21:51:04.465Z,26.48
2023-06-22T21:53:31.700Z,26.35
2023-06-22T21:55:58.601Z,26.28
2023-06-22T21:58:26.922Z,26.28
2023-06-22T22:00:57.765Z,26.24
2023-06-22T22:03:28.228Z,26.27
2023-06-22T22:05:56.518Z,26.23
2023-06-22T22:08:24.537Z,26.20
2023-06-22T22:10:51.598Z,26.16
2023-06-22T22:13:19.782Z,26.06
2023-06-22T22:15:50.015Z,26.05
2023-06-22T22:18:17.474Z,26.07
2023-06-22T22:20:44.359Z,25.99
2023-06-22T22:23:11.583Z,25.95
2023-06-22T22:25:38.452Z,25.90
2023-06-22T22:28:05.645Z,25.88
2023-06-22T22:30:32.587Z,25.92
2023-06-22T22:32:59.785Z,25.82
2023-06-22T22:35:26.721Z,25.83
2023-06-22T22:38:15.659Z,25.76
2023-06-22T22:40:42.468Z,25.73
2023-06-22T22:43:09.614Z,25.62
2023-06-22T22:45:36.628Z,25.55
2023-06-22T22:48:04.092Z,25.57
2023-06-22T22:50:31.282Z,25.54
2023-06-22T22:52:58.442Z,25.52
2023-06-22T22:55:25.374Z,25.50
2023-06-22T22:57:52.571Z,25.48
2023-06-22T23:00:19.429Z,25.44
2023-06-22T23:02:48.969Z,25.43
2023-06-22T23:05:16.074Z,25.51
2023-06-22T23:07:43.278Z,25.36
2023-06-22T23:10:10.397Z,25.43
2023-06-22T23:12:38.312Z,25.40
2023-06-22T23:15:08.485Z,25.29
2023-06-22T23:17:35.686Z,25.33
2023-06-22T23:20:03.874Z,25.24
2023-06-22T23:22:31.922Z,25.21
2023-06-22T23:24:58.811Z,25.23
2023-06-22T23:27:25.942Z,25.17
2023-06-22T23:29:52.803Z,25.15
2023-06-22T23:32:19.989Z,25.06
2023-06-22T23:34:46.868Z,25.00
2023-06-22T23:37:14.786Z,24.94
2023-06-22T23:39:44.651Z,24.88
2023-06-22T23:42:11.832Z,24.92
2023-06-22T23:44:38.768Z,24.87
2023-06-22T23:47:06.242Z,25.02
2023-06-22T23:49:33.160Z,25.01
2023-06-22T23:52:00.615Z,24.90
2023-06-22T23:54:28.096Z,24.83
2023-06-22T23:56:55.441Z,24.82
2023-06-22T23:59:22.344Z,24.87
